Baker Hill, Alabama
Current Conditions -  °F | °C
As of 2:58 PM on Thursday 20 Nov 2014 (Local Time) from KEUF Reporting Station
Few Clouds Few Clouds  
Wind Chill: 66°   Ceiling: Unl
Heat Index: 66°   Visibility: 10mi
Dew Point: 43°   Wind: 6mph
Humidity: 43%   Direction: 270°W
Pressure: 30.18"   Gusts: NA
Location:  31.7867°N, 85.2397°W
Report Text: KEUF 202058Z AUTO 27005KT 10SM FEW049 19/06 A3018 RMK AO2 SLP221 T01890061 56016
Loading
Personal Weather Stations






























Interactive Weather Map New forecast layout! Learn more

10-Day Weather Forecast

Advertisements
Track Severe Weather on mobile